createdAt,value
2023-01-18T00:01:24.937Z,85.20
2023-01-18T00:05:37.172Z,85.11
2023-01-18T00:09:49.461Z,85.12
2023-01-18T00:14:01.633Z,85.04
2023-01-18T00:18:17.067Z,84.99
2023-01-18T00:22:29.590Z,85.07
2023-01-18T00:26:44.757Z,85.11
2023-01-18T00:30:50.122Z,85.03
2023-01-18T00:34:56.915Z,85.04
2023-01-18T00:39:08.947Z,85.06
2023-01-18T00:43:21.412Z,85.02
2023-01-18T00:47:33.649Z,84.97
2023-01-18T00:51:46.714Z,85.01
2023-01-18T00:55:58.654Z,85.05
2023-01-18T01:00:05.212Z,85.10
2023-01-18T01:04:15.859Z,85.15
2023-01-18T01:08:27.831Z,85.20
2023-01-18T01:12:38.034Z,85.22
2023-01-18T01:16:48.425Z,85.25
2023-01-18T01:20:58.693Z,85.29
2023-01-18T01:25:09.180Z,85.37
2023-01-18T01:29:21.772Z,85.47
2023-01-18T01:33:25.914Z,85.53
2023-01-18T01:37:37.738Z,85.61
2023-01-18T01:41:43.575Z,85.73
2023-01-18T01:45:55.332Z,85.84
2023-01-18T01:50:10.676Z,85.89
2023-01-18T01:54:23.613Z,85.94
2023-01-18T01:58:38.636Z,86.01
2023-01-18T02:02:50.657Z,86.10
2023-01-18T02:07:19.470Z,86.17
2023-01-18T02:11:31.637Z,86.24
2023-01-18T02:15:44.610Z,86.30
2023-01-18T02:19:55.177Z,86.29
2023-01-18T02:24:07.388Z,86.30
2023-01-18T02:28:19.312Z,86.31
2023-01-18T02:32:37.667Z,86.33
2023-01-18T02:36:44.584Z,86.39
2023-01-18T02:41:02.656Z,86.42
2023-01-18T02:45:15.826Z,86.34
2023-01-18T02:49:49.541Z,86.19
2023-01-18T02:54:00.970Z,86.19
2023-01-18T02:58:13.423Z,86.23
2023-01-18T03:02:25.600Z,86.29
2023-01-18T03:06:39.714Z,86.36
2023-01-18T03:10:51.858Z,86.39
2023-01-18T03:15:03.884Z,86.43
2023-01-18T03:19:21.694Z,86.46
2023-01-18T03:23:35.270Z,86.48
2023-01-18T03:27:46.973Z,86.51
2023-01-18T03:31:57.813Z,86.56
2023-01-18T03:36:10.274Z,86.58
2023-01-18T03:40:25.175Z,86.62
2023-01-18T03:44:29.490Z,86.64
2023-01-18T03:48:41.911Z,86.67
2023-01-18T03:53:05.354Z,86.65
2023-01-18T03:57:14.314Z,86.67
2023-01-18T04:01:26.636Z,86.65
2023-01-18T04:09:59.157Z,86.73
2023-01-18T04:14:11.160Z,86.76
2023-01-18T04:18:23.614Z,86.83
2023-01-18T04:22:35.782Z,86.87
2023-01-18T04:26:48.140Z,86.90
2023-01-18T04:30:59.897Z,86.89
2023-01-18T04:35:11.897Z,86.91
2023-01-18T04:39:24.173Z,86.92
2023-01-18T04:43:35.111Z,86.91
2023-01-18T04:47:47.253Z,86.88
2023-01-18T04:51:59.625Z,86.88
2023-01-18T04:56:11.734Z,86.87
2023-01-18T05:00:23.429Z,86.92
2023-01-18T05:04:35.710Z,87.00
2023-01-18T05:08:47.916Z,87.02
2023-01-18T05:13:00.527Z,87.03
2023-01-18T05:17:13.671Z,87.07
2023-01-18T05:21:25.729Z,87.09
2023-01-18T05:25:37.688Z,87.10
2023-01-18T05:29:49.832Z,87.11
2023-01-18T05:34:02.049Z,87.12
2023-01-18T05:38:14.320Z,87.17
2023-01-18T05:42:26.387Z,87.19
2023-01-18T05:46:38.538Z,87.18
2023-01-18T05:50:50.809Z,87.20
2023-01-18T05:55:02.692Z,87.22
2023-01-18T05:59:14.856Z,87.23
2023-01-18T06:03:40.677Z,87.23
2023-01-18T06:07:53.011Z,87.24
2023-01-18T06:12:04.877Z,87.26
2023-01-18T06:16:16.968Z,87.30
2023-01-18T06:20:29.192Z,87.36
2023-01-18T06:24:41.998Z,87.41
2023-01-18T06:28:54.215Z,87.47
2023-01-18T06:33:05.987Z,87.54
2023-01-18T06:37:12.976Z,87.59
2023-01-18T06:41:25.119Z,87.68
2023-01-18T06:45:29.829Z,87.78
2023-01-18T06:49:56.076Z,87.67
2023-01-18T06:54:08.242Z,87.70
2023-01-18T06:58:13.377Z,87.76
2023-01-18T07:02:25.732Z,87.72
2023-01-18T07:06:38.394Z,87.81
2023-01-18T07:10:50.732Z,87.77
2023-01-18T07:15:12.750Z,87.74
2023-01-18T07:19:32.278Z,87.74
2023-01-18T07:23:44.818Z,87.79
2023-01-18T07:27:56.883Z,87.85
2023-01-18T07:32:09.259Z,87.87
2023-01-18T07:36:31.592Z,87.93
2023-01-18T07:40:43.442Z,87.90
2023-01-18T07:44:55.630Z,87.85
2023-01-18T07:49:07.834Z,87.82
2023-01-18T07:53:20.143Z,87.81
2023-01-18T07:57:25.128Z,87.79
2023-01-18T08:01:31.682Z,87.78
2023-01-18T08:06:03.110Z,87.78
2023-01-18T08:09:59.101Z,87.80
2023-01-18T08:14:11.714Z,87.83
2023-01-18T08:18:24.317Z,87.83
2023-01-18T08:22:54.703Z,87.79
2023-01-18T08:27:06.310Z,87.76
2023-01-18T08:31:18.559Z,87.76
2023-01-18T08:35:31.195Z,87.78
2023-01-18T08:39:43.758Z,87.80
2023-01-18T08:43:56.310Z,87.82
2023-01-18T08:48:08.489Z,87.83
2023-01-18T08:52:12.575Z,87.82
2023-01-18T08:56:24.899Z,87.84
2023-01-18T09:00:36.783Z,87.83
2023-01-18T09:04:49.505Z,87.82
2023-01-18T09:09:01.915Z,87.79
2023-01-18T09:13:07.101Z,87.80
2023-01-18T09:17:13.967Z,87.83
2023-01-18T09:21:28.585Z,87.86
2023-01-18T09:25:40.709Z,87.85
2023-01-18T09:29:52.970Z,87.87
2023-01-18T09:34:18.576Z,87.88
2023-01-18T09:38:38.255Z,87.87
2023-01-18T09:42:44.799Z,87.88
2023-01-18T09:47:11.134Z,87.89
2023-01-18T09:51:23.276Z,87.86
2023-01-18T09:55:37.944Z,87.90
2023-01-18T10:00:00.955Z,87.95
2023-01-18T10:04:13.115Z,87.94
2023-01-18T10:08:31.505Z,87.87
2023-01-18T10:12:43.909Z,87.83
2023-01-18T10:16:56.432Z,87.79
2023-01-18T10:21:06.944Z,87.75
2023-01-18T10:25:17.656Z,87.80
2023-01-18T10:29:28.612Z,87.82
2023-01-18T10:33:41.109Z,87.80
2023-01-18T10:37:36.529Z,87.78
2023-01-18T10:41:50.887Z,87.74
2023-01-18T10:46:00.214Z,87.71
2023-01-18T10:50:10.705Z,87.69
2023-01-18T10:54:23.152Z,87.68
2023-01-18T10:58:35.618Z,87.69
2023-01-18T11:02:47.825Z,87.64
2023-01-18T11:07:00.097Z,87.62
2023-01-18T11:11:12.192Z,87.60
2023-01-18T11:15:14.308Z,87.60
2023-01-18T11:19:21.312Z,87.56
2023-01-18T11:23:36.501Z,87.52
2023-01-18T11:27:48.540Z,87.43
2023-01-18T11:32:00.771Z,87.33
2023-01-18T11:36:15.695Z,87.23
2023-01-18T11:40:30.072Z,87.17
2023-01-18T11:44:48.366Z,87.02
2023-01-18T11:49:00.555Z,86.96
2023-01-18T11:53:25.132Z,86.89
2023-01-18T11:57:37.110Z,87.07
2023-01-18T12:01:48.195Z,87.06
2023-01-18T12:06:03.510Z,87.06
2023-01-18T12:10:25.412Z,87.03
2023-01-18T12:14:24.393Z,86.92
2023-01-18T12:18:34.977Z,86.77
2023-01-18T12:22:58.556Z,86.65
2023-01-18T12:27:22.356Z,86.74
2023-01-18T12:31:32.964Z,86.76
2023-01-18T12:35:45.152Z,86.79
2023-01-18T12:40:09.708Z,86.77
2023-01-18T12:44:14.093Z,86.93
2023-01-18T12:48:21.944Z,86.94
2023-01-18T12:52:35.381Z,87.03
2023-01-18T12:56:45.752Z,87.02
2023-01-18T13:01:00.653Z,86.95
2023-01-18T13:05:06.137Z,86.91
2023-01-18T13:09:20.315Z,86.82
2023-01-18T13:13:23.250Z,86.84
2023-01-18T13:17:06.544Z,86.73
2023-01-18T13:21:18.790Z,86.78
2023-01-18T13:25:30.595Z,86.78
2023-01-18T13:30:07.676Z,86.70
2023-01-18T13:34:19.033Z,86.54
2023-01-18T13:38:41.334Z,86.59
2023-01-18T13:42:57.151Z,86.48
2023-01-18T13:47:09.794Z,86.44
2023-01-18T13:51:22.034Z,86.41
2023-01-18T13:55:34.319Z,86.37
2023-01-18T13:59:52.535Z,86.45
2023-01-18T14:04:07.556Z,86.38
2023-01-18T14:08:19.836Z,86.32
2023-01-18T14:12:32.159Z,86.68
2023-01-18T14:16:45.049Z,86.95
2023-01-18T14:20:57.679Z,86.74
2023-01-18T14:25:09.652Z,86.45
2023-01-18T14:29:16.430Z,86.44
2023-01-18T14:33:34.880Z,86.20
2023-01-18T14:37:41.900Z,86.09
2023-01-18T14:42:07.859Z,86.14
2023-01-18T14:46:34.489Z,85.77
2023-01-18T14:50:47.957Z,85.61
2023-01-18T14:55:18.560Z,85.40
2023-01-18T14:59:24.697Z,85.40
2023-01-18T15:03:36.978Z,85.33
2023-01-18T15:07:57.552Z,85.38
2023-01-18T15:12:09.896Z,85.43
2023-01-18T15:16:17.766Z,85.48
2023-01-18T15:20:35.961Z,85.34
2023-01-18T15:24:48.434Z,85.46
2023-01-18T15:28:52.499Z,85.39
2023-01-18T15:33:04.933Z,85.38
2023-01-18T15:37:17.573Z,85.37
2023-01-18T15:41:30.411Z,85.44
2023-01-18T15:45:27.268Z,85.46
2023-01-18T15:49:39.414Z,85.38
2023-01-18T15:53:51.394Z,85.38
2023-01-18T15:58:17.438Z,85.32
2023-01-18T16:07:14.394Z,85.26
2023-01-18T16:11:45.581Z,85.23
2023-01-18T16:16:03.672Z,85.29
2023-01-18T16:20:15.436Z,85.27
2023-01-18T16:24:27.800Z,85.23
2023-01-18T16:28:25.107Z,85.24
2023-01-18T16:32:36.899Z,85.23
2023-01-18T16:36:59.176Z,85.18
2023-01-18T16:41:11.491Z,85.15
2023-01-18T16:45:38.244Z,85.09
2023-01-18T16:49:50.637Z,85.00
2023-01-18T16:54:03.053Z,84.96
2023-01-18T16:58:15.799Z,84.92
2023-01-18T17:02:41.848Z,84.85
2023-01-18T17:06:55.807Z,84.82
2023-01-18T17:11:08.356Z,84.78
2023-01-18T17:15:20.528Z,84.77
2023-01-18T17:19:33.228Z,84.72
2023-01-18T17:23:47.964Z,84.71
2023-01-18T17:27:46.011Z,84.68
2023-01-18T17:31:56.203Z,84.63
2023-01-18T17:36:09.271Z,84.55
2023-01-18T17:40:30.960Z,84.49
2023-01-18T17:44:51.881Z,84.36
2023-01-18T17:49:04.354Z,84.23
2023-01-18T17:53:16.056Z,84.21
2023-01-18T17:57:28.518Z,84.08
2023-01-18T18:01:36.641Z,84.02
2023-01-18T18:05:49.079Z,83.96
2023-01-18T18:10:03.293Z,83.88
2023-01-18T18:14:11.946Z,83.82
2023-01-18T18:18:24.419Z,83.80
2023-01-18T18:22:31.350Z,83.71
2023-01-18T18:26:43.798Z,83.66
2023-01-18T18:30:55.840Z,83.52
2023-01-18T18:35:09.520Z,83.50
2023-01-18T18:39:23.302Z,83.40
2023-01-18T18:43:49.129Z,83.30
2023-01-18T18:48:20.110Z,83.19
2023-01-18T18:52:31.776Z,83.11
2023-01-18T18:56:43.894Z,83.04
2023-01-18T19:00:56.338Z,82.99
2023-01-18T19:05:08.921Z,83.02
2023-01-18T19:09:21.141Z,82.98
2023-01-18T19:13:33.232Z,82.87
2023-01-18T19:17:45.462Z,82.74
2023-01-18T19:21:57.831Z,82.70
2023-01-18T19:26:10.109Z,82.49
2023-01-18T19:30:22.294Z,82.41
2023-01-18T19:34:48.559Z,82.15
2023-01-18T19:39:02.271Z,82.08
2023-01-18T19:43:15.495Z,81.95
2023-01-18T19:47:41.541Z,81.95
2023-01-18T19:57:23.782Z,81.52
2023-01-18T20:01:37.392Z,81.50
2023-01-18T20:05:50.637Z,81.41
2023-01-18T20:10:03.189Z,81.38
2023-01-18T20:14:16.551Z,81.37
2023-01-18T20:18:29.287Z,81.41
2023-01-18T20:22:33.571Z,81.33
2023-01-18T20:26:41.913Z,81.29
2023-01-18T20:30:54.899Z,81.23
2023-01-18T20:35:04.076Z,81.16
2023-01-18T20:39:16.848Z,81.06
2023-01-18T20:43:29.114Z,81.01
2023-01-18T20:47:41.033Z,81.01
2023-01-18T20:51:53.444Z,80.91
2023-01-18T20:56:08.253Z,80.84
2023-01-18T21:00:24.667Z,80.79
2023-01-18T21:04:36.812Z,80.69
2023-01-18T21:09:07.980Z,80.48
2023-01-18T21:13:19.652Z,80.33
2023-01-18T21:17:32.736Z,80.35
2023-01-18T21:21:45.430Z,80.28
2023-01-18T21:25:57.538Z,80.31
2023-01-18T21:30:10.254Z,80.26
2023-01-18T21:34:22.580Z,80.31
2023-01-18T21:38:35.864Z,80.46
2023-01-18T21:42:59.599Z,80.62
2023-01-18T21:47:04.402Z,80.74
2023-01-18T21:51:28.807Z,80.99
2023-01-18T21:55:36.202Z,81.24
2023-01-18T21:59:48.363Z,81.64
2023-01-18T22:04:00.639Z,82.01
2023-01-18T22:08:13.209Z,82.25
2023-01-18T22:12:25.758Z,82.52
2023-01-18T22:16:37.535Z,82.73
2023-01-18T22:21:04.007Z,83.03
2023-01-18T22:25:17.024Z,83.42
2023-01-18T22:29:29.115Z,83.63
2023-01-18T22:33:41.459Z,83.90
2023-01-18T22:37:53.546Z,84.12
2023-01-18T22:46:34.767Z,84.45
2023-01-18T22:50:46.963Z,84.63
2023-01-18T22:54:58.865Z,84.73
2023-01-18T22:59:10.807Z,84.79
2023-01-18T23:03:23.039Z,84.79
2023-01-18T23:07:35.027Z,84.76
2023-01-18T23:11:51.983Z,84.79
2023-01-18T23:16:16.642Z,84.79
2023-01-18T23:20:29.348Z,84.78
2023-01-18T23:24:41.855Z,84.80
2023-01-18T23:29:05.886Z,84.81
2023-01-18T23:33:17.871Z,84.86
2023-01-18T23:37:29.738Z,84.92
2023-01-18T23:41:40.559Z,85.06
2023-01-18T23:45:45.593Z,85.17
2023-01-18T23:49:48.302Z,85.34
2023-01-18T23:53:58.782Z,85.44
2023-01-18T23:58:01.893Z,85.55
